sensor_id;sensor_type;location;lat;lon;timestamp;temperature;humidity
81630;DHT22;71039;49.500;10.418;2023-08-20T00:01:57;26.40;53.00
81630;DHT22;71039;49.500;10.418;2023-08-20T00:04:25;26.40;53.20
81630;DHT22;71039;49.500;10.418;2023-08-20T00:06:52;26.30;53.20
81630;DHT22;71039;49.500;10.418;2023-08-20T00:09:17;26.20;53.20
81630;DHT22;71039;49.500;10.418;2023-08-20T00:11:43;26.20;53.20
81630;DHT22;71039;49.500;10.418;2023-08-20T00:14:15;26.20;53.30
81630;DHT22;71039;49.500;10.418;2023-08-20T00:16:41;26.20;53.70
81630;DHT22;71039;49.500;10.418;2023-08-20T00:19:07;26.20;53.30
81630;DHT22;71039;49.500;10.418;2023-08-20T00:21:33;26.20;53.40
81630;DHT22;71039;49.500;10.418;2023-08-20T00:23:59;26.20;53.40
81630;DHT22;71039;49.500;10.418;2023-08-20T00:26:25;26.20;53.50
81630;DHT22;71039;49.500;10.418;2023-08-20T00:28:51;26.10;53.50
81630;DHT22;71039;49.500;10.418;2023-08-20T00:31:16;26.10;53.60
81630;DHT22;71039;49.500;10.418;2023-08-20T00:33:42;26.10;53.70
81630;DHT22;71039;49.500;10.418;2023-08-20T00:36:07;26.10;53.70
81630;DHT22;71039;49.500;10.418;2023-08-20T00:38:33;26.10;53.80
81630;DHT22;71039;49.500;10.418;2023-08-20T00:41:01;26.00;53.90
81630;DHT22;71039;49.500;10.418;2023-08-20T00:43:26;26.00;53.90
81630;DHT22;71039;49.500;10.418;2023-08-20T00:45:52;26.00;54.00
81630;DHT22;71039;49.500;10.418;2023-08-20T00:48:18;26.00;54.10
81630;DHT22;71039;49.500;10.418;2023-08-20T00:50:44;26.00;54.10
81630;DHT22;71039;49.500;10.418;2023-08-20T00:53:11;26.00;54.20
81630;DHT22;71039;49.500;10.418;2023-08-20T00:55:37;26.00;54.30
81630;DHT22;71039;49.500;10.418;2023-08-20T00:58:03;26.00;54.40
81630;DHT22;71039;49.500;10.418;2023-08-20T01:00:29;26.00;54.40
81630;DHT22;71039;49.500;10.418;2023-08-20T01:02:54;25.90;54.50
81630;DHT22;71039;49.500;10.418;2023-08-20T01:05:20;25.90;54.50
81630;DHT22;71039;49.500;10.418;2023-08-20T01:13:28;25.90;54.80
81630;DHT22;71039;49.500;10.418;2023-08-20T01:15:54;25.80;54.60
81630;DHT22;71039;49.500;10.418;2023-08-20T01:18:19;25.80;54.70
81630;DHT22;71039;49.500;10.418;2023-08-20T01:20:51;25.80;54.70
81630;DHT22;71039;49.500;10.418;2023-08-20T01:23:35;25.80;54.80
81630;DHT22;71039;49.500;10.418;2023-08-20T01:28:46;25.70;55.20
81630;DHT22;71039;49.500;10.418;2023-08-20T01:31:12;25.60;54.80
81630;DHT22;71039;49.500;10.418;2023-08-20T01:33:37;25.60;54.90
81630;DHT22;71039;49.500;10.418;2023-08-20T01:36:06;25.60;55.00
81630;DHT22;71039;49.500;10.418;2023-08-20T01:38:33;25.60;55.00
81630;DHT22;71039;49.500;10.418;2023-08-20T01:40:58;25.60;55.10
81630;DHT22;71039;49.500;10.418;2023-08-20T01:43:24;25.50;55.20
81630;DHT22;71039;49.500;10.418;2023-08-20T01:45:49;25.50;55.30
81630;DHT22;71039;49.500;10.418;2023-08-20T01:48:15;25.50;55.40
81630;DHT22;71039;49.500;10.418;2023-08-20T01:50:40;25.40;55.50
81630;DHT22;71039;49.500;10.418;2023-08-20T01:53:06;25.40;55.50
81630;DHT22;71039;49.500;10.418;2023-08-20T01:55:31;25.40;55.60
81630;DHT22;71039;49.500;10.418;2023-08-20T01:57:58;25.40;55.70
81630;DHT22;71039;49.500;10.418;2023-08-20T02:00:24;25.40;55.70
81630;DHT22;71039;49.500;10.418;2023-08-20T02:02:49;25.40;55.80
81630;DHT22;71039;49.500;10.418;2023-08-20T02:05:15;25.40;55.90
81630;DHT22;71039;49.500;10.418;2023-08-20T02:07:40;25.30;56.00
81630;DHT22;71039;49.500;10.418;2023-08-20T02:10:06;25.30;56.00
81630;DHT22;71039;49.500;10.418;2023-08-20T02:12:32;25.30;56.10
81630;DHT22;71039;49.500;10.418;2023-08-20T02:14:57;25.30;56.10
81630;DHT22;71039;49.500;10.418;2023-08-20T02:17:24;25.30;56.10
81630;DHT22;71039;49.500;10.418;2023-08-20T02:19:49;25.30;56.20
81630;DHT22;71039;49.500;10.418;2023-08-20T02:22:15;25.20;56.20
81630;DHT22;71039;49.500;10.418;2023-08-20T02:24:41;25.20;56.20
81630;DHT22;71039;49.500;10.418;2023-08-20T02:27:07;25.20;56.40
81630;DHT22;71039;49.500;10.418;2023-08-20T02:29:33;25.20;56.40
81630;DHT22;71039;49.500;10.418;2023-08-20T02:31:59;25.20;56.50
81630;DHT22;71039;49.500;10.418;2023-08-20T02:34:25;25.10;56.50
81630;DHT22;71039;49.500;10.418;2023-08-20T02:36:50;25.10;56.50
81630;DHT22;71039;49.500;10.418;2023-08-20T02:39:16;25.10;56.60
81630;DHT22;71039;49.500;10.418;2023-08-20T02:41:41;25.10;56.60
81630;DHT22;71039;49.500;10.418;2023-08-20T02:44:08;25.00;56.60
81630;DHT22;71039;49.500;10.418;2023-08-20T02:46:34;25.00;56.70
81630;DHT22;71039;49.500;10.418;2023-08-20T02:49:00;25.00;56.80
81630;DHT22;71039;49.500;10.418;2023-08-20T02:51:27;25.00;56.80
81630;DHT22;71039;49.500;10.418;2023-08-20T02:53:52;25.00;56.90
81630;DHT22;71039;49.500;10.418;2023-08-20T02:56:18;25.00;56.90
81630;DHT22;71039;49.500;10.418;2023-08-20T02:58:44;25.00;57.00
81630;DHT22;71039;49.500;10.418;2023-08-20T03:01:18;24.90;57.10
81630;DHT22;71039;49.500;10.418;2023-08-20T03:03:44;24.80;57.60
81630;DHT22;71039;49.500;10.418;2023-08-20T03:06:09;24.80;57.20
81630;DHT22;71039;49.500;10.418;2023-08-20T03:08:35;24.80;57.20
81630;DHT22;71039;49.500;10.418;2023-08-20T03:11:00;24.80;57.30
81630;DHT22;71039;49.500;10.418;2023-08-20T03:13:26;24.70;57.40
81630;DHT22;71039;49.500;10.418;2023-08-20T03:15:51;24.70;57.50
81630;DHT22;71039;49.500;10.418;2023-08-20T03:18:17;24.70;57.50
81630;DHT22;71039;49.500;10.418;2023-08-20T03:20:42;24.70;57.60
81630;DHT22;71039;49.500;10.418;2023-08-20T03:23:08;24.60;57.60
81630;DHT22;71039;49.500;10.418;2023-08-20T03:25:34;24.60;57.60
81630;DHT22;71039;49.500;10.418;2023-08-20T03:27:59;24.60;57.70
81630;DHT22;71039;49.500;10.418;2023-08-20T03:30:25;24.50;57.80
81630;DHT22;71039;49.500;10.418;2023-08-20T03:32:50;24.50;57.80
81630;DHT22;71039;49.500;10.418;2023-08-20T03:35:16;24.50;57.90
81630;DHT22;71039;49.500;10.418;2023-08-20T03:37:41;24.50;58.00
81630;DHT22;71039;49.500;10.418;2023-08-20T03:40:07;24.40;58.10
81630;DHT22;71039;49.500;10.418;2023-08-20T03:42:33;24.40;58.20
81630;DHT22;71039;49.500;10.418;2023-08-20T03:44:58;24.40;58.20
81630;DHT22;71039;49.500;10.418;2023-08-20T03:47:24;24.40;58.30
81630;DHT22;71039;49.500;10.418;2023-08-20T03:49:49;24.40;58.40
81630;DHT22;71039;49.500;10.418;2023-08-20T03:52:15;24.40;58.40
81630;DHT22;71039;49.500;10.418;2023-08-20T03:54:42;24.40;58.40
81630;DHT22;71039;49.500;10.418;2023-08-20T03:57:07;24.40;58.40
81630;DHT22;71039;49.500;10.418;2023-08-20T03:59:33;24.30;58.50
81630;DHT22;71039;49.500;10.418;2023-08-20T04:01:58;24.30;58.50
81630;DHT22;71039;49.500;10.418;2023-08-20T04:04:24;24.20;58.50
81630;DHT22;71039;49.500;10.418;2023-08-20T04:06:50;24.20;58.50
81630;DHT22;71039;49.500;10.418;2023-08-20T04:09:15;24.20;58.50
81630;DHT22;71039;49.500;10.418;2023-08-20T04:11:41;24.20;58.60
81630;DHT22;71039;49.500;10.418;2023-08-20T04:14:06;24.20;58.60
81630;DHT22;71039;49.500;10.418;2023-08-20T04:16:32;24.20;58.70
81630;DHT22;71039;49.500;10.418;2023-08-20T04:18:57;24.10;58.80
81630;DHT22;71039;49.500;10.418;2023-08-20T04:21:23;24.00;58.90
81630;DHT22;71039;49.500;10.418;2023-08-20T04:23:49;24.00;59.00
81630;DHT22;71039;49.500;10.418;2023-08-20T04:26:14;24.00;59.00
81630;DHT22;71039;49.500;10.418;2023-08-20T04:28:40;24.00;59.10
81630;DHT22;71039;49.500;10.418;2023-08-20T04:31:06;24.00;59.20
81630;DHT22;71039;49.500;10.418;2023-08-20T04:33:50;23.90;59.30
81630;DHT22;71039;49.500;10.418;2023-08-20T04:36:19;23.90;59.40
81630;DHT22;71039;49.500;10.418;2023-08-20T04:38:44;23.90;59.50
81630;DHT22;71039;49.500;10.418;2023-08-20T04:41:10;23.90;59.60
81630;DHT22;71039;49.500;10.418;2023-08-20T04:43:36;23.90;59.70
81630;DHT22;71039;49.500;10.418;2023-08-20T04:46:02;23.90;59.80
81630;DHT22;71039;49.500;10.418;2023-08-20T04:48:28;23.90;60.00
81630;DHT22;71039;49.500;10.418;2023-08-20T04:50:54;23.90;60.10
81630;DHT22;71039;49.500;10.418;2023-08-20T04:53:20;23.80;60.20
81630;DHT22;71039;49.500;10.418;2023-08-20T04:55:46;23.90;60.30
81630;DHT22;71039;49.500;10.418;2023-08-20T04:58:13;23.90;60.40
81630;DHT22;71039;49.500;10.418;2023-08-20T05:00:38;23.90;60.40
81630;DHT22;71039;49.500;10.418;2023-08-20T05:03:07;23.90;60.50
81630;DHT22;71039;49.500;10.418;2023-08-20T05:05:33;23.90;60.50
81630;DHT22;71039;49.500;10.418;2023-08-20T05:07:58;23.90;60.50
81630;DHT22;71039;49.500;10.418;2023-08-20T05:10:24;23.90;60.50
81630;DHT22;71039;49.500;10.418;2023-08-20T05:12:49;24.00;60.50
81630;DHT22;71039;49.500;10.418;2023-08-20T05:15:15;24.00;60.50
81630;DHT22;71039;49.500;10.418;2023-08-20T05:17:41;24.00;60.60
81630;DHT22;71039;49.500;10.418;2023-08-20T05:20:07;24.00;60.60
81630;DHT22;71039;49.500;10.418;2023-08-20T05:22:32;24.00;60.70
81630;DHT22;71039;49.500;10.418;2023-08-20T05:24:58;24.00;60.70
81630;DHT22;71039;49.500;10.418;2023-08-20T05:27:24;24.00;60.80
81630;DHT22;71039;49.500;10.418;2023-08-20T05:29:50;24.00;60.90
81630;DHT22;71039;49.500;10.418;2023-08-20T05:32:17;24.00;60.90
81630;DHT22;71039;49.500;10.418;2023-08-20T05:34:42;24.10;60.90
81630;DHT22;71039;49.500;10.418;2023-08-20T05:37:08;24.10;61.00
81630;DHT22;71039;49.500;10.418;2023-08-20T05:39:42;24.20;61.00
81630;DHT22;71039;49.500;10.418;2023-08-20T05:42:07;24.20;61.40
81630;DHT22;71039;49.500;10.418;2023-08-20T05:44:33;24.20;61.20
81630;DHT22;71039;49.500;10.418;2023-08-20T05:46:59;24.20;61.20
81630;DHT22;71039;49.500;10.418;2023-08-20T05:49:25;24.30;61.20
81630;DHT22;71039;49.500;10.418;2023-08-20T05:51:50;24.40;61.20
81630;DHT22;71039;49.500;10.418;2023-08-20T05:54:17;24.40;61.20
81630;DHT22;71039;49.500;10.418;2023-08-20T05:56:42;24.40;61.20
81630;DHT22;71039;49.500;10.418;2023-08-20T05:59:08;24.50;61.20
81630;DHT22;71039;49.500;10.418;2023-08-20T06:01:34;24.50;61.20
81630;DHT22;71039;49.500;10.418;2023-08-20T06:03:59;24.60;61.30
81630;DHT22;71039;49.500;10.418;2023-08-20T06:06:25;24.60;61.30
81630;DHT22;71039;49.500;10.418;2023-08-20T06:08:51;24.70;61.30
81630;DHT22;71039;49.500;10.418;2023-08-20T06:11:16;24.70;61.30
81630;DHT22;71039;49.500;10.418;2023-08-20T06:13:42;24.80;61.30
81630;DHT22;71039;49.500;10.418;2023-08-20T06:16:08;25.00;61.30
81630;DHT22;71039;49.500;10.418;2023-08-20T06:18:33;25.00;61.40
81630;DHT22;71039;49.500;10.418;2023-08-20T06:20:59;25.00;61.40
81630;DHT22;71039;49.500;10.418;2023-08-20T06:23:24;25.10;61.40
81630;DHT22;71039;49.500;10.418;2023-08-20T06:25:53;25.30;61.40
81630;DHT22;71039;49.500;10.418;2023-08-20T06:28:19;25.30;61.40
81630;DHT22;71039;49.500;10.418;2023-08-20T06:30:45;25.50;61.40
81630;DHT22;71039;49.500;10.418;2023-08-20T06:33:11;25.60;61.30
81630;DHT22;71039;49.500;10.418;2023-08-20T06:35:36;25.60;62.20
81630;DHT22;71039;49.500;10.418;2023-08-20T06:38:02;25.80;64.70
81630;DHT22;71039;49.500;10.418;2023-08-20T06:40:28;26.10;66.50
81630;DHT22;71039;49.500;10.418;2023-08-20T06:42:53;26.40;67.30
81630;DHT22;71039;49.500;10.418;2023-08-20T06:45:19;26.90;67.70
81630;DHT22;71039;49.500;10.418;2023-08-20T06:47:45;27.40;67.80
81630;DHT22;71039;49.500;10.418;2023-08-20T06:50:10;28.00;67.40
81630;DHT22;71039;49.500;10.418;2023-08-20T06:52:36;28.50;66.80
81630;DHT22;71039;49.500;10.418;2023-08-20T06:55:01;29.20;65.90
81630;DHT22;71039;49.500;10.418;2023-08-20T06:57:27;29.90;64.90
81630;DHT22;71039;49.500;10.418;2023-08-20T06:59:52;30.50;63.70
81630;DHT22;71039;49.500;10.418;2023-08-20T07:02:18;31.20;62.50
81630;DHT22;71039;49.500;10.418;2023-08-20T07:04:43;31.90;61.10
81630;DHT22;71039;49.500;10.418;2023-08-20T07:07:09;32.50;59.80
81630;DHT22;71039;49.500;10.418;2023-08-20T07:09:35;33.10;58.60
81630;DHT22;71039;49.500;10.418;2023-08-20T07:12:01;33.80;57.30
81630;DHT22;71039;49.500;10.418;2023-08-20T07:14:26;34.40;56.00
81630;DHT22;71039;49.500;10.418;2023-08-20T07:16:52;35.00;55.00
81630;DHT22;71039;49.500;10.418;2023-08-20T07:19:17;35.60;53.80
81630;DHT22;71039;49.500;10.418;2023-08-20T07:21:43;36.10;52.70
81630;DHT22;71039;49.500;10.418;2023-08-20T07:24:08;36.70;51.60
81630;DHT22;71039;49.500;10.418;2023-08-20T07:26:34;37.30;50.70
81630;DHT22;71039;49.500;10.418;2023-08-20T07:28:59;37.80;49.60
81630;DHT22;71039;49.500;10.418;2023-08-20T07:31:30;38.30;48.60
81630;DHT22;71039;49.500;10.418;2023-08-20T07:33:56;38.80;47.60
81630;DHT22;71039;49.500;10.418;2023-08-20T07:36:23;39.20;46.80
81630;DHT22;71039;49.500;10.418;2023-08-20T07:38:49;39.70;46.00
81630;DHT22;71039;49.500;10.418;2023-08-20T07:41:15;40.10;45.20
81630;DHT22;71039;49.500;10.418;2023-08-20T07:43:41;40.50;44.50
81630;DHT22;71039;49.500;10.418;2023-08-20T07:46:07;40.90;43.90
81630;DHT22;71039;49.500;10.418;2023-08-20T07:48:33;41.20;43.20
81630;DHT22;71039;49.500;10.418;2023-08-20T07:51:00;41.50;43.70
81630;DHT22;71039;49.500;10.418;2023-08-20T07:53:25;41.90;42.60
81630;DHT22;71039;49.500;10.418;2023-08-20T07:55:51;42.20;41.90
81630;DHT22;71039;49.500;10.418;2023-08-20T07:58:17;42.50;41.20
81630;DHT22;71039;49.500;10.418;2023-08-20T08:00:43;42.80;40.70
81630;DHT22;71039;49.500;10.418;2023-08-20T08:03:08;43.00;40.30
81630;DHT22;71039;49.500;10.418;2023-08-20T08:05:34;43.30;39.80
81630;DHT22;71039;49.500;10.418;2023-08-20T08:07:59;43.50;39.40
81630;DHT22;71039;49.500;10.418;2023-08-20T08:10:25;43.70;38.80
81630;DHT22;71039;49.500;10.418;2023-08-20T08:12:50;43.90;38.50
81630;DHT22;71039;49.500;10.418;2023-08-20T08:15:16;44.20;38.30
81630;DHT22;71039;49.500;10.418;2023-08-20T08:17:41;44.40;38.00
81630;DHT22;71039;49.500;10.418;2023-08-20T08:20:07;44.50;37.70
81630;DHT22;71039;49.500;10.418;2023-08-20T08:22:32;44.70;37.30
81630;DHT22;71039;49.500;10.418;2023-08-20T08:24:58;44.90;37.00
81630;DHT22;71039;49.500;10.418;2023-08-20T08:27:23;45.00;36.80
81630;DHT22;71039;49.500;10.418;2023-08-20T08:29:50;45.30;36.30
81630;DHT22;71039;49.500;10.418;2023-08-20T08:32:16;45.40;35.70
81630;DHT22;71039;49.500;10.418;2023-08-20T08:34:42;45.50;35.60
81630;DHT22;71039;49.500;10.418;2023-08-20T08:37:07;45.60;35.30
81630;DHT22;71039;49.500;10.418;2023-08-20T08:39:33;45.70;34.70
81630;DHT22;71039;49.500;10.418;2023-08-20T08:42:04;45.70;34.20
81630;DHT22;71039;49.500;10.418;2023-08-20T08:44:33;45.60;33.50
81630;DHT22;71039;49.500;10.418;2023-08-20T08:47:01;45.50;33.30
81630;DHT22;71039;49.500;10.418;2023-08-20T08:49:27;45.30;33.40
81630;DHT22;71039;49.500;10.418;2023-08-20T08:51:54;45.00;33.60
81630;DHT22;71039;49.500;10.418;2023-08-20T08:54:22;44.90;33.90
81630;DHT22;71039;49.500;10.418;2023-08-20T08:56:48;44.70;34.20
81630;DHT22;71039;49.500;10.418;2023-08-20T08:59:14;44.60;34.40
81630;DHT22;71039;49.500;10.418;2023-08-20T09:01:40;44.50;34.50
81630;DHT22;71039;49.500;10.418;2023-08-20T09:04:06;44.50;34.60
81630;DHT22;71039;49.500;10.418;2023-08-20T09:06:48;44.60;34.40
81630;DHT22;71039;49.500;10.418;2023-08-20T09:09:14;44.70;33.30
81630;DHT22;71039;49.500;10.418;2023-08-20T09:11:40;44.70;34.20
81630;DHT22;71039;49.500;10.418;2023-08-20T09:14:06;44.70;34.20
81630;DHT22;71039;49.500;10.418;2023-08-20T09:16:31;44.70;34.00
81630;DHT22;71039;49.500;10.418;2023-08-20T09:18:59;44.70;33.90
81630;DHT22;71039;49.500;10.418;2023-08-20T09:21:28;44.80;33.70
81630;DHT22;71039;49.500;10.418;2023-08-20T09:23:54;44.80;33.40
81630;DHT22;71039;49.500;10.418;2023-08-20T09:26:20;44.80;33.20
81630;DHT22;71039;49.500;10.418;2023-08-20T09:28:46;44.70;33.00
81630;DHT22;71039;49.500;10.418;2023-08-20T09:31:12;44.70;32.50
81630;DHT22;71039;49.500;10.418;2023-08-20T09:33:54;44.50;32.80
81630;DHT22;71039;49.500;10.418;2023-08-20T09:36:33;44.20;32.10
81630;DHT22;71039;49.500;10.418;2023-08-20T09:38:59;43.90;32.00
81630;DHT22;71039;49.500;10.418;2023-08-20T09:41:25;43.60;32.30
81630;DHT22;71039;49.500;10.418;2023-08-20T09:43:58;43.20;32.30
81630;DHT22;71039;49.500;10.418;2023-08-20T09:46:27;42.90;32.30
81630;DHT22;71039;49.500;10.418;2023-08-20T09:48:56;42.50;32.70
81630;DHT22;71039;49.500;10.418;2023-08-20T09:51:28;42.20;33.00
81630;DHT22;71039;49.500;10.418;2023-08-20T09:56:27;41.70;33.30
81630;DHT22;71039;49.500;10.418;2023-08-20T09:58:53;41.40;33.50
81630;DHT22;71039;49.500;10.418;2023-08-20T10:01:19;41.20;33.60
81630;DHT22;71039;49.500;10.418;2023-08-20T10:03:45;41.00;33.60
81630;DHT22;71039;49.500;10.418;2023-08-20T10:06:11;40.80;33.70
81630;DHT22;71039;49.500;10.418;2023-08-20T10:08:37;40.60;33.60
81630;DHT22;71039;49.500;10.418;2023-08-20T10:11:03;40.50;33.70
81630;DHT22;71039;49.500;10.418;2023-08-20T10:13:29;40.30;33.70
81630;DHT22;71039;49.500;10.418;2023-08-20T10:15:55;40.20;33.90
81630;DHT22;71039;49.500;10.418;2023-08-20T10:18:21;40.00;33.90
81630;DHT22;71039;49.500;10.418;2023-08-20T10:20:50;39.90;34.00
81630;DHT22;71039;49.500;10.418;2023-08-20T10:23:20;39.80;34.10
81630;DHT22;71039;49.500;10.418;2023-08-20T10:25:46;39.70;34.00
81630;DHT22;71039;49.500;10.418;2023-08-20T10:28:25;39.60;33.90
81630;DHT22;71039;49.500;10.418;2023-08-20T10:31:15;39.50;33.70
81630;DHT22;71039;49.500;10.418;2023-08-20T10:36:18;39.20;34.00
81630;DHT22;71039;49.500;10.418;2023-08-20T10:38:47;39.00;34.10
81630;DHT22;71039;49.500;10.418;2023-08-20T10:41:12;38.90;34.30
81630;DHT22;71039;49.500;10.418;2023-08-20T10:43:39;38.80;34.60
81630;DHT22;71039;49.500;10.418;2023-08-20T10:46:25;38.70;34.90
81630;DHT22;71039;49.500;10.418;2023-08-20T10:49:01;38.60;34.70
81630;DHT22;71039;49.500;10.418;2023-08-20T10:51:37;38.50;35.00
81630;DHT22;71039;49.500;10.418;2023-08-20T10:54:08;38.50;34.80
81630;DHT22;71039;49.500;10.418;2023-08-20T10:56:47;38.40;35.00
81630;DHT22;71039;49.500;10.418;2023-08-20T10:59:26;38.30;35.00
81630;DHT22;71039;49.500;10.418;2023-08-20T11:01:55;38.30;35.00
81630;DHT22;71039;49.500;10.418;2023-08-20T11:04:23;38.30;34.70
81630;DHT22;71039;49.500;10.418;2023-08-20T11:06:52;38.30;34.70
81630;DHT22;71039;49.500;10.418;2023-08-20T11:09:18;38.30;34.80
81630;DHT22;71039;49.500;10.418;2023-08-20T11:11:44;38.30;34.70
81630;DHT22;71039;49.500;10.418;2023-08-20T11:14:14;38.30;34.70
81630;DHT22;71039;49.500;10.418;2023-08-20T11:16:41;38.30;34.60
81630;DHT22;71039;49.500;10.418;2023-08-20T11:19:07;38.30;34.90
81630;DHT22;71039;49.500;10.418;2023-08-20T11:21:32;38.30;35.30
81630;DHT22;71039;49.500;10.418;2023-08-20T11:23:59;38.30;35.40
81630;DHT22;71039;49.500;10.418;2023-08-20T11:26:25;38.30;35.50
81630;DHT22;71039;49.500;10.418;2023-08-20T11:28:51;38.40;35.50
81630;DHT22;71039;49.500;10.418;2023-08-20T11:31:16;38.40;35.50
81630;DHT22;71039;49.500;10.418;2023-08-20T11:33:42;38.50;35.50
81630;DHT22;71039;49.500;10.418;2023-08-20T11:36:08;38.50;35.50
81630;DHT22;71039;49.500;10.418;2023-08-20T11:38:33;38.50;35.60
81630;DHT22;71039;49.500;10.418;2023-08-20T11:40:59;38.50;35.70
81630;DHT22;71039;49.500;10.418;2023-08-20T11:43:24;38.60;35.70
81630;DHT22;71039;49.500;10.418;2023-08-20T11:45:50;38.60;35.50
81630;DHT22;71039;49.500;10.418;2023-08-20T11:48:16;38.60;35.40
81630;DHT22;71039;49.500;10.418;2023-08-20T11:50:42;38.60;35.40
81630;DHT22;71039;49.500;10.418;2023-08-20T11:53:09;38.70;35.60
81630;DHT22;71039;49.500;10.418;2023-08-20T11:55:35;38.70;35.70
81630;DHT22;71039;49.500;10.418;2023-08-20T11:58:00;38.70;35.70
81630;DHT22;71039;49.500;10.418;2023-08-20T12:00:28;38.70;35.80
81630;DHT22;71039;49.500;10.418;2023-08-20T12:02:54;38.70;35.80
81630;DHT22;71039;49.500;10.418;2023-08-20T12:05:20;38.70;35.70
81630;DHT22;71039;49.500;10.418;2023-08-20T12:07:58;38.80;35.70
81630;DHT22;71039;49.500;10.418;2023-08-20T12:10:25;38.80;35.70
81630;DHT22;71039;49.500;10.418;2023-08-20T12:12:51;38.80;35.80
81630;DHT22;71039;49.500;10.418;2023-08-20T12:15:17;38.80;35.90
81630;DHT22;71039;49.500;10.418;2023-08-20T12:17:42;38.90;35.90
81630;DHT22;71039;49.500;10.418;2023-08-20T12:20:08;38.90;35.90
81630;DHT22;71039;49.500;10.418;2023-08-20T12:22:34;38.90;35.80
81630;DHT22;71039;49.500;10.418;2023-08-20T12:24:59;38.90;35.70
81630;DHT22;71039;49.500;10.418;2023-08-20T12:27:25;39.00;35.70
81630;DHT22;71039;49.500;10.418;2023-08-20T12:29:50;39.00;35.80
81630;DHT22;71039;49.500;10.418;2023-08-20T12:32:16;39.00;35.80
81630;DHT22;71039;49.500;10.418;2023-08-20T12:34:41;39.00;35.80
81630;DHT22;71039;49.500;10.418;2023-08-20T12:37:07;39.00;35.70
81630;DHT22;71039;49.500;10.418;2023-08-20T12:39:32;39.10;35.70
81630;DHT22;71039;49.500;10.418;2023-08-20T12:41:58;39.10;35.70
81630;DHT22;71039;49.500;10.418;2023-08-20T12:44:23;39.10;35.50
81630;DHT22;71039;49.500;10.418;2023-08-20T12:46:49;39.10;35.50
81630;DHT22;71039;49.500;10.418;2023-08-20T12:49:14;39.10;35.50
81630;DHT22;71039;49.500;10.418;2023-08-20T12:51:40;39.10;35.50
81630;DHT22;71039;49.500;10.418;2023-08-20T12:54:05;39.10;35.50
81630;DHT22;71039;49.500;10.418;2023-08-20T12:56:31;39.10;35.60
81630;DHT22;71039;49.500;10.418;2023-08-20T12:58:57;39.20;35.60
81630;DHT22;71039;49.500;10.418;2023-08-20T13:01:22;39.20;35.50
81630;DHT22;71039;49.500;10.418;2023-08-20T13:03:48;39.20;35.50
81630;DHT22;71039;49.500;10.418;2023-08-20T13:06:14;39.20;35.50
81630;DHT22;71039;49.500;10.418;2023-08-20T13:08:40;39.20;35.40
81630;DHT22;71039;49.500;10.418;2023-08-20T13:11:05;39.20;35.30
81630;DHT22;71039;49.500;10.418;2023-08-20T13:13:32;39.20;35.10
81630;DHT22;71039;49.500;10.418;2023-08-20T13:15:58;39.10;35.10
81630;DHT22;71039;49.500;10.418;2023-08-20T13:18:24;39.10;35.20
81630;DHT22;71039;49.500;10.418;2023-08-20T13:20:50;39.10;35.20
81630;DHT22;71039;49.500;10.418;2023-08-20T13:23:15;39.10;35.20
81630;DHT22;71039;49.500;10.418;2023-08-20T13:25:41;39.00;35.20
81630;DHT22;71039;49.500;10.418;2023-08-20T13:28:07;39.00;35.20
81630;DHT22;71039;49.500;10.418;2023-08-20T13:30:32;39.00;35.20
81630;DHT22;71039;49.500;10.418;2023-08-20T13:32:58;39.10;35.20
81630;DHT22;71039;49.500;10.418;2023-08-20T13:35:23;39.10;35.10
81630;DHT22;71039;49.500;10.418;2023-08-20T13:37:49;39.10;35.10
81630;DHT22;71039;49.500;10.418;2023-08-20T13:40:14;39.10;34.90
81630;DHT22;71039;49.500;10.418;2023-08-20T13:42:40;39.10;34.80
81630;DHT22;71039;49.500;10.418;2023-08-20T13:45:06;39.10;34.80
81630;DHT22;71039;49.500;10.418;2023-08-20T13:47:31;39.10;34.70
81630;DHT22;71039;49.500;10.418;2023-08-20T13:49:57;39.10;34.70
81630;DHT22;71039;49.500;10.418;2023-08-20T13:52:22;39.10;34.60
81630;DHT22;71039;49.500;10.418;2023-08-20T13:54:48;39.10;34.40
81630;DHT22;71039;49.500;10.418;2023-08-20T13:57:14;39.10;34.50
81630;DHT22;71039;49.500;10.418;2023-08-20T13:59:39;39.10;34.50
81630;DHT22;71039;49.500;10.418;2023-08-20T14:02:05;39.00;34.50
81630;DHT22;71039;49.500;10.418;2023-08-20T14:04:31;39.10;34.50
81630;DHT22;71039;49.500;10.418;2023-08-20T14:06:56;39.10;34.30
81630;DHT22;71039;49.500;10.418;2023-08-20T14:09:22;39.10;34.30
81630;DHT22;71039;49.500;10.418;2023-08-20T14:11:47;39.10;34.30
81630;DHT22;71039;49.500;10.418;2023-08-20T14:14:13;39.10;34.40
81630;DHT22;71039;49.500;10.418;2023-08-20T14:16:38;39.10;34.20
81630;DHT22;71039;49.500;10.418;2023-08-20T14:19:04;39.10;34.10
81630;DHT22;71039;49.500;10.418;2023-08-20T14:21:29;39.10;34.10
81630;DHT22;71039;49.500;10.418;2023-08-20T14:23:55;39.10;34.10
81630;DHT22;71039;49.500;10.418;2023-08-20T14:28:54;39.20;33.70
81630;DHT22;71039;49.500;10.418;2023-08-20T14:31:20;39.20;33.70
81630;DHT22;71039;49.500;10.418;2023-08-20T14:33:45;39.20;33.70
81630;DHT22;71039;49.500;10.418;2023-08-20T14:36:11;39.20;33.70
81630;DHT22;71039;49.500;10.418;2023-08-20T14:38:36;39.10;33.70
81630;DHT22;71039;49.500;10.418;2023-08-20T14:41:03;39.10;33.70
81630;DHT22;71039;49.500;10.418;2023-08-20T14:43:29;39.10;33.80
81630;DHT22;71039;49.500;10.418;2023-08-20T14:45:55;39.10;33.80
81630;DHT22;71039;49.500;10.418;2023-08-20T14:48:21;39.10;33.90
81630;DHT22;71039;49.500;10.418;2023-08-20T14:50:47;39.10;33.90
81630;DHT22;71039;49.500;10.418;2023-08-20T14:53:12;39.10;33.90
81630;DHT22;71039;49.500;10.418;2023-08-20T14:55:38;39.10;34.00
81630;DHT22;71039;49.500;10.418;2023-08-20T14:58:04;39.10;34.00
81630;DHT22;71039;49.500;10.418;2023-08-20T15:00:30;39.10;34.00
81630;DHT22;71039;49.500;10.418;2023-08-20T15:02:56;39.10;34.00
81630;DHT22;71039;49.500;10.418;2023-08-20T15:05:22;39.10;34.00
81630;DHT22;71039;49.500;10.418;2023-08-20T15:07:47;39.10;33.90
81630;DHT22;71039;49.500;10.418;2023-08-20T15:10:13;39.10;33.80
81630;DHT22;71039;49.500;10.418;2023-08-20T15:12:38;39.10;33.80
81630;DHT22;71039;49.500;10.418;2023-08-20T15:15:04;39.10;33.90
81630;DHT22;71039;49.500;10.418;2023-08-20T15:17:31;39.10;33.90
81630;DHT22;71039;49.500;10.418;2023-08-20T15:19:56;39.00;33.90
81630;DHT22;71039;49.500;10.418;2023-08-20T15:22:22;39.00;33.90
81630;DHT22;71039;49.500;10.418;2023-08-20T15:24:48;39.00;33.80
81630;DHT22;71039;49.500;10.418;2023-08-20T15:27:13;38.90;33.70